Time;durP1;ratioP1;P1;durP2;ratioP2;P2;SDS_P1;SDS_P2;PMS_P1;PMS_P2;Temp;Humidity;BMP_temperature;BMP_pressure;BME280_temperature;BME280_humidity;BME280_pressure;Samples;Min_cycle;Max_cycle;Signal;HPM_P1;HPM_P2
2023/10/03 00:00:58;;;;;;;245.63;96.07;;;;;;;;;;4955002;28;20457;-47
2023/10/03 00:03:24;;;;;;;250.13;98.67;;;;;;;;;;4955872;28;20954;-47
2023/10/03 00:05:51;;;;;;;244.17;95.10;;;;;;;;;;4956206;28;20441;-47
2023/10/03 00:08:17;;;;;;;246.37;95.67;;;;;;;;;;4956240;28;20910;-47
2023/10/03 00:10:45;;;;;;;246.33;96.43;;;;;;;;;;4956326;28;20421;-47
2023/10/03 00:13:11;;;;;;;245.47;97.33;;;;;;;;;;4956114;28;20418;-46
2023/10/03 00:15:44;;;;;;;243.10;93.67;;;;;;;;;;4955941;28;20458;-47
2023/10/03 00:18:14;;;;;;;250.03;98.83;;;;;;;;;;4956051;28;20402;-47
2023/10/03 00:20:40;;;;;;;242.53;92.13;;;;;;;;;;4956245;28;20539;-47
2023/10/03 00:23:06;;;;;;;247.03;96.83;;;;;;;;;;4955743;29;20476;-47
2023/10/03 00:25:32;;;;;;;245.43;94.87;;;;;;;;;;4955748;28;20440;-47
2023/10/03 00:28:01;;;;;;;245.87;95.83;;;;;;;;;;4955904;28;20480;-46
2023/10/03 00:30:30;;;;;;;246.97;97.53;;;;;;;;;;4956146;28;20419;-47
2023/10/03 00:32:57;;;;;;;244.87;95.50;;;;;;;;;;4955798;28;20457;-47
2023/10/03 00:35:24;;;;;;;245.83;95.40;;;;;;;;;;4955557;28;20449;-47
2023/10/03 00:37:51;;;;;;;248.23;100.23;;;;;;;;;;4955856;29;20414;-47
2023/10/03 00:42:52;;;;;;;242.70;90.57;;;;;;;;;;4956039;28;20496;-46
2023/10/03 00:45:26;;;;;;;247.67;99.80;;;;;;;;;;4955301;28;20443;-47
2023/10/03 00:47:55;;;;;;;243.90;94.23;;;;;;;;;;4955566;28;20429;-47
2023/10/03 00:50:28;;;;;;;242.67;93.37;;;;;;;;;;4947938;29;20449;-47
2023/10/03 00:53:00;;;;;;;244.43;92.87;;;;;;;;;;4955408;28;20422;-47
2023/10/03 00:55:27;;;;;;;243.37;93.90;;;;;;;;;;4959417;28;20444;-47
2023/10/03 00:58:32;;;;;;;245.33;96.60;;;;;;;;;;4974928;28;20407;-47
2023/10/03 01:00:49;;;;;;;244.37;96.40;;;;;;;;;;4934156;29;20497;-47
2023/10/03 01:03:24;;;;;;;247.33;97.70;;;;;;;;;;4973177;28;20631;-47
2023/10/03 01:05:53;;;;;;;243.53;93.93;;;;;;;;;;4957565;28;20935;-47
2023/10/03 01:08:21;;;;;;;243.93;94.80;;;;;;;;;;4955127;28;20411;-47
2023/10/03 01:10:47;;;;;;;241.27;94.80;;;;;;;;;;4946398;28;20501;-47
2023/10/03 01:13:13;;;;;;;245.47;96.93;;;;;;;;;;4940964;29;20413;-47
2023/10/03 01:15:40;;;;;;;247.77;97.70;;;;;;;;;;4954088;28;20434;-47
2023/10/03 01:18:13;;;;;;;244.43;96.50;;;;;;;;;;4936121;29;20428;-47
2023/10/03 01:20:48;;;;;;;246.37;98.17;;;;;;;;;;4953064;29;20457;-47
2023/10/03 01:23:15;;;;;;;244.57;94.00;;;;;;;;;;4940273;28;20465;-47
2023/10/03 01:25:43;;;;;;;242.90;93.43;;;;;;;;;;4946326;28;20433;-47
2023/10/03 01:28:09;;;;;;;245.17;99.20;;;;;;;;;;4948053;28;20972;-47
2023/10/03 01:30:40;;;;;;;244.47;96.60;;;;;;;;;;4938726;29;20414;-47
2023/10/03 01:33:07;;;;;;;251.10;104.77;;;;;;;;;;4954642;28;20454;-47
2023/10/03 01:35:33;;;;;;;244.17;94.00;;;;;;;;;;4935702;28;20427;-47
2023/10/03 01:37:59;;;;;;;243.93;95.43;;;;;;;;;;4950772;28;20940;-47
2023/10/03 01:40:26;;;;;;;246.63;99.67;;;;;;;;;;4950977;28;20434;-47
2023/10/03 01:42:52;;;;;;;244.63;95.83;;;;;;;;;;4954147;28;20462;-47
2023/10/03 01:45:25;;;;;;;245.13;97.23;;;;;;;;;;4954248;28;20457;-47
2023/10/03 01:47:51;;;;;;;248.57;102.83;;;;;;;;;;4954139;28;20505;-47
2023/10/03 01:50:21;;;;;;;243.07;94.03;;;;;;;;;;4935484;29;20411;-47
2023/10/03 01:52:48;;;;;;;244.57;96.13;;;;;;;;;;4951512;28;20446;-47
2023/10/03 01:55:17;;;;;;;244.83;96.90;;;;;;;;;;4941849;28;20444;-47
2023/10/03 01:57:43;;;;;;;242.47;95.27;;;;;;;;;;4944049;29;20419;-47
2023/10/03 02:00:30;;;;;;;245.73;97.50;;;;;;;;;;4949373;28;20502;-47
2023/10/03 02:02:57;;;;;;;246.20;100.20;;;;;;;;;;4938933;29;20453;-47
2023/10/03 02:05:27;;;;;;;243.60;94.53;;;;;;;;;;4953924;28;20430;-47
2023/10/03 02:08:03;;;;;;;247.33;99.93;;;;;;;;;;4934711;29;20413;-47
2023/10/03 02:10:29;;;;;;;245.30;95.10;;;;;;;;;;4951945;28;20409;-47
2023/10/03 02:12:56;;;;;;;241.30;92.07;;;;;;;;;;4941075;28;20430;-47
2023/10/03 02:15:26;;;;;;;244.23;96.67;;;;;;;;;;4943769;28;20457;-47
2023/10/03 02:17:53;;;;;;;246.87;100.60;;;;;;;;;;4948303;28;20518;-47
2023/10/03 02:20:25;;;;;;;244.30;96.37;;;;;;;;;;4936736;29;20407;-47
2023/10/03 02:22:55;;;;;;;245.77;97.73;;;;;;;;;;4954002;28;20460;-47
2023/10/03 02:25:30;;;;;;;243.77;97.00;;;;;;;;;;4935131;28;20485;-47
2023/10/03 02:27:57;;;;;;;247.23;100.40;;;;;;;;;;4951481;29;20759;-47
2023/10/03 02:30:23;;;;;;;243.17;96.13;;;;;;;;;;4941883;28;20417;-47
2023/10/03 02:32:53;;;;;;;245.43;98.57;;;;;;;;;;4942700;29;20421;-47
2023/10/03 02:35:22;;;;;;;242.53;93.43;;;;;;;;;;4948947;28;20438;-47
2023/10/03 02:37:49;;;;;;;245.67;97.73;;;;;;;;;;4935670;29;20410;-47
2023/10/03 02:40:21;;;;;;;244.23;96.33;;;;;;;;;;4953863;28;20496;-47
2023/10/03 02:42:47;;;;;;;242.77;94.17;;;;;;;;;;4953284;28;20770;-47
2023/10/03 02:45:17;;;;;;;246.03;98.77;;;;;;;;;;4940072;28;20454;-47
2023/10/03 02:47:43;;;;;;;243.83;96.03;;;;;;;;;;4944259;29;20485;-46
2023/10/03 02:50:12;;;;;;;241.10;93.10;;;;;;;;;;4947706;28;20415;-47
2023/10/03 02:52:39;;;;;;;244.80;93.37;;;;;;;;;;4936749;29;20480;-47
2023/10/03 02:55:08;;;;;;;241.20;92.23;;;;;;;;;;4953487;28;20489;-47
2023/10/03 02:57:35;;;;;;;248.40;102.53;;;;;;;;;;4935512;28;20426;-47
2023/10/03 03:00:05;;;;;;;244.07;96.13;;;;;;;;;;4948575;28;20414;-47
2023/10/03 03:02:31;;;;;;;243.20;96.67;;;;;;;;;;4942473;28;20447;-47
2023/10/03 03:04:59;;;;;;;244.67;99.43;;;;;;;;;;4940991;29;20974;-47
2023/10/03 03:07:27;;;;;;;246.03;102.30;;;;;;;;;;4950534;28;20768;-47
2023/10/03 03:09:59;;;;;;;243.70;95.53;;;;;;;;;;4934441;29;20465;-47
2023/10/03 03:12:25;;;;;;;244.57;100.97;;;;;;;;;;4934547;29;20494;-47
2023/10/03 03:14:52;;;;;;;243.43;95.27;;;;;;;;;;4949506;29;20453;-47
2023/10/03 03:17:20;;;;;;;243.67;97.33;;;;;;;;;;4941478;28;20551;-47
2023/10/03 03:19:46;;;;;;;244.03;94.90;;;;;;;;;;4943520;28;20905;-47
2023/10/03 03:22:15;;;;;;;242.67;95.27;;;;;;;;;;4952998;28;20413;-47
2023/10/03 03:24:42;;;;;;;246.07;101.43;;;;;;;;;;4949038;28;20523;-47
2023/10/03 03:27:16;;;;;;;243.20;97.13;;;;;;;;;;4956965;28;20468;-47
2023/10/03 03:30:22;;;;;;;247.93;103.27;;;;;;;;;;4957027;28;20791;-47
2023/10/03 03:32:28;;;;;;;242.17;93.27;;;;;;;;;;4950165;29;20842;-47
2023/10/03 03:34:54;;;;;;;243.63;94.97;;;;;;;;;;4964261;28;20441;-47
2023/10/03 03:37:21;;;;;;;245.43;101.47;;;;;;;;;;4956951;28;20424;-47
2023/10/03 03:39:53;;;;;;;245.37;98.67;;;;;;;;;;4956816;28;20434;-48
2023/10/03 03:42:22;;;;;;;243.17;95.00;;;;;;;;;;4956598;29;20409;-47
2023/10/03 03:44:49;;;;;;;242.07;94.93;;;;;;;;;;4956453;28;20468;-47
2023/10/03 03:47:18;;;;;;;248.10;101.27;;;;;;;;;;4956622;28;20807;-47
2023/10/03 03:49:44;;;;;;;242.60;95.13;;;;;;;;;;4956584;28;20421;-47
2023/10/03 03:52:12;;;;;;;244.10;94.07;;;;;;;;;;4956645;28;20446;-47
2023/10/03 03:54:39;;;;;;;245.07;97.23;;;;;;;;;;4956180;28;20445;-47
2023/10/03 03:57:06;;;;;;;246.17;99.00;;;;;;;;;;4956450;29;20505;-47
2023/10/03 03:59:32;;;;;;;248.53;103.27;;;;;;;;;;4955134;28;20425;-47
2023/10/03 04:02:00;;;;;;;243.07;94.30;;;;;;;;;;4956402;29;20950;-47
2023/10/03 04:04:26;;;;;;;245.87;100.80;;;;;;;;;;4956049;28;20476;-47
2023/10/03 04:06:52;;;;;;;242.20;94.73;;;;;;;;;;4956341;28;20501;-47
2023/10/03 04:09:19;;;;;;;245.03;98.40;;;;;;;;;;4956158;29;20441;-47
2023/10/03 04:11:46;;;;;;;243.87;97.33;;;;;;;;;;4956420;28;20894;-47
2023/10/03 04:14:13;;;;;;;242.53;95.63;;;;;;;;;;4956057;28;20445;-47
2023/10/03 04:16:39;;;;;;;241.93;94.73;;;;;;;;;;4956425;28;20418;-47
2023/10/03 04:19:06;;;;;;;247.83;103.13;;;;;;;;;;4956002;29;20905;-47
2023/10/03 04:21:33;;;;;;;241.57;94.90;;;;;;;;;;4956080;28;20416;-47
2023/10/03 04:23:59;;;;;;;241.07;94.17;;;;;;;;;;4955525;28;20473;-47
2023/10/03 04:26:25;;;;;;;243.23;94.77;;;;;;;;;;4956027;28;20488;-47
2023/10/03 04:28:52;;;;;;;243.93;96.57;;;;;;;;;;4956124;29;20421;-47
2023/10/03 04:31:18;;;;;;;243.57;97.00;;;;;;;;;;4955393;28;20414;-47
2023/10/03 04:33:45;;;;;;;245.63;97.13;;;;;;;;;;4955646;28;20440;-47
2023/10/03 04:36:12;;;;;;;243.83;98.00;;;;;;;;;;4955770;28;20464;-48
2023/10/03 04:38:40;;;;;;;242.73;94.93;;;;;;;;;;4955823;28;20424;-47
2023/10/03 04:41:09;;;;;;;244.07;96.97;;;;;;;;;;4955649;28;20421;-47
2023/10/03 04:43:35;;;;;;;246.53;98.17;;;;;;;;;;4955561;28;20475;-47
2023/10/03 04:46:02;;;;;;;242.93;96.23;;;;;;;;;;4955406;28;20421;-47
2023/10/03 04:48:28;;;;;;;241.63;93.50;;;;;;;;;;4955669;28;20422;-47
2023/10/03 04:50:54;;;;;;;244.03;96.30;;;;;;;;;;4955326;28;20413;-47
2023/10/03 04:53:20;;;;;;;246.23;95.73;;;;;;;;;;4955575;29;20417;-47
2023/10/03 04:55:48;;;;;;;241.10;92.80;;;;;;;;;;4955416;28;20891;-47
2023/10/03 04:58:14;;;;;;;243.40;97.97;;;;;;;;;;4955366;28;20429;-47
2023/10/03 05:00:40;;;;;;;242.00;96.13;;;;;;;;;;4955457;28;20410;-47
2023/10/03 05:03:09;;;;;;;249.20;101.33;;;;;;;;;;4955138;29;20458;-47
2023/10/03 05:05:35;;;;;;;243.60;97.10;;;;;;;;;;4954916;28;20437;-47
2023/10/03 05:08:02;;;;;;;242.07;92.93;;;;;;;;;;4955325;29;20428;-47
2023/10/03 05:10:30;;;;;;;242.77;96.13;;;;;;;;;;4955202;28;20921;-47
2023/10/03 05:12:57;;;;;;;241.40;93.60;;;;;;;;;;4955098;28;20448;-47
2023/10/03 05:15:26;;;;;;;243.50;95.73;;;;;;;;;;4954915;28;20441;-47
2023/10/03 05:17:52;;;;;;;244.73;95.07;;;;;;;;;;4954988;29;20410;-47
2023/10/03 05:20:18;;;;;;;246.97;101.00;;;;;;;;;;4954835;29;20413;-47
2023/10/03 05:22:48;;;;;;;246.27;97.87;;;;;;;;;;4954873;28;20465;-47
2023/10/03 05:25:17;;;;;;;241.93;92.57;;;;;;;;;;4954590;29;20449;-48
2023/10/03 05:27:43;;;;;;;242.63;93.37;;;;;;;;;;4954838;28;20509;-47
2023/10/03 05:30:10;;;;;;;242.23;93.23;;;;;;;;;;4954724;28;20429;-47
2023/10/03 05:32:37;;;;;;;242.70;94.10;;;;;;;;;;4954850;28;20401;-47
2023/10/03 05:35:05;;;;;;;246.90;100.93;;;;;;;;;;4954044;28;20448;-46
2023/10/03 05:37:33;;;;;;;243.13;93.37;;;;;;;;;;4964125;28;20505;-47
2023/10/03 05:39:59;;;;;;;241.97;93.73;;;;;;;;;;4968340;28;20413;-47
2023/10/03 05:42:26;;;;;;;246.10;97.93;;;;;;;;;;4953943;28;20437;-47
2023/10/03 05:44:53;;;;;;;243.73;95.77;;;;;;;;;;4954536;28;20495;-47
2023/10/03 05:47:19;;;;;;;243.93;95.77;;;;;;;;;;4937183;28;20431;-47
2023/10/03 05:49:45;;;;;;;245.60;99.07;;;;;;;;;;4948676;29;20420;-47
2023/10/03 05:52:12;;;;;;;246.33;99.20;;;;;;;;;;4945191;28;20494;-47
2023/10/03 05:54:38;;;;;;;237.83;89.37;;;;;;;;;;4940425;29;20937;-47
2023/10/03 05:57:04;;;;;;;242.67;95.40;;;;;;;;;;4952973;28;20416;-47
2023/10/03 05:59:30;;;;;;;246.50;99.87;;;;;;;;;;4935392;29;20403;-47
2023/10/03 06:01:58;;;;;;;242.07;93.40;;;;;;;;;;4951840;29;20416;-47
2023/10/03 06:04:24;;;;;;;244.13;96.53;;;;;;;;;;4940803;28;20998;-47
2023/10/03 06:06:50;;;;;;;244.47;97.60;;;;;;;;;;4944312;28;20410;-46
2023/10/03 06:09:16;;;;;;;241.47;93.10;;;;;;;;;;4948958;28;20425;-47
2023/10/03 06:11:42;;;;;;;243.97;97.87;;;;;;;;;;4936237;29;20410;-47
2023/10/03 06:14:08;;;;;;;244.97;97.43;;;;;;;;;;4953933;28;20444;-47
2023/10/03 06:16:36;;;;;;;246.33;104.30;;;;;;;;;;4937508;28;20427;-47
2023/10/03 06:19:04;;;;;;;245.43;101.40;;;;;;;;;;4947785;29;20501;-47
2023/10/03 06:21:30;;;;;;;242.70;95.83;;;;;;;;;;4945020;28;20932;-46
2023/10/03 06:23:56;;;;;;;244.43;99.70;;;;;;;;;;4939826;29;20463;-46
2023/10/03 06:26:21;;;;;;;245.40;98.67;;;;;;;;;;4952681;28;20413;-46
2023/10/03 06:28:50;;;;;;;247.77;104.13;;;;;;;;;;4934902;29;20419;-47
2023/10/03 06:31:18;;;;;;;243.30;98.13;;;;;;;;;;4951822;28;20448;-47
2023/10/03 06:33:44;;;;;;;246.00;97.07;;;;;;;;;;4940496;28;20449;-47
2023/10/03 06:36:11;;;;;;;239.83;90.50;;;;;;;;;;4943811;29;20423;-47
2023/10/03 06:38:38;;;;;;;241.30;93.03;;;;;;;;;;4948433;28;20421;-47
2023/10/03 06:41:04;;;;;;;245.73;98.20;;;;;;;;;;4941353;29;20489;-46
2023/10/03 06:43:30;;;;;;;246.77;98.23;;;;;;;;;;4953585;28;20462;-47
2023/10/03 06:45:57;;;;;;;242.67;94.23;;;;;;;;;;4953244;28;20532;-47
2023/10/03 06:48:24;;;;;;;243.43;95.13;;;;;;;;;;4940670;28;20505;-47
2023/10/03 06:50:50;;;;;;;242.50;92.50;;;;;;;;;;4943736;28;20406;-46
2023/10/03 06:53:19;;;;;;;242.23;91.87;;;;;;;;;;4947983;28;20414;-47
2023/10/03 06:55:46;;;;;;;248.60;102.90;;;;;;;;;;4936914;29;20420;-47
2023/10/03 06:58:12;;;;;;;247.70;100.17;;;;;;;;;;4953608;28;20465;-47
2023/10/03 07:00:38;;;;;;;244.47;97.03;;;;;;;;;;4936436;28;20432;-47
2023/10/03 07:03:04;;;;;;;243.67;97.73;;;;;;;;;;4947432;29;20461;-47
2023/10/03 07:05:30;;;;;;;246.07;99.97;;;;;;;;;;4944448;28;20449;-46
2023/10/03 07:07:56;;;;;;;242.57;94.13;;;;;;;;;;4939532;29;20414;-47
2023/10/03 07:10:22;;;;;;;248.27;99.97;;;;;;;;;;4952013;28;20407;-47
2023/10/03 07:12:48;;;;;;;241.13;94.03;;;;;;;;;;4934363;29;20494;-47
2023/10/03 07:15:14;;;;;;;246.37;99.57;;;;;;;;;;4949364;28;20473;-47
2023/10/03 07:17:40;;;;;;;246.83;101.53;;;;;;;;;;4940823;28;20450;-47
2023/10/03 07:20:08;;;;;;;246.07;97.53;;;;;;;;;;4942788;29;20452;-47
2023/10/03 07:22:35;;;;;;;246.53;100.63;;;;;;;;;;4948242;28;20510;-47
2023/10/03 07:25:04;;;;;;;247.97;102.33;;;;;;;;;;4934928;29;20910;-46
2023/10/03 07:27:30;;;;;;;244.37;99.60;;;;;;;;;;4952225;28;20481;-47
2023/10/03 07:29:56;;;;;;;244.23;94.73;;;;;;;;;;4936357;28;20422;-47
2023/10/03 07:32:22;;;;;;;246.17;97.90;;;;;;;;;;4946965;29;20424;-47
2023/10/03 07:34:49;;;;;;;247.60;99.03;;;;;;;;;;4944663;28;20529;-46
2023/10/03 07:37:15;;;;;;;247.40;96.83;;;;;;;;;;4939042;29;20417;-47
2023/10/03 07:39:42;;;;;;;250.73;102.73;;;;;;;;;;4952508;28;20413;-47
2023/10/03 07:42:08;;;;;;;242.37;92.70;;;;;;;;;;4953288;28;20730;-47
2023/10/03 07:44:36;;;;;;;246.40;98.03;;;;;;;;;;4936167;28;20629;-47
2023/10/03 07:47:03;;;;;;;245.53;96.90;;;;;;;;;;4946667;29;20791;-47
2023/10/03 07:49:30;;;;;;;250.37;100.07;;;;;;;;;;4943825;28;20407;-47
2023/10/03 07:52:00;;;;;;;247.50;99.17;;;;;;;;;;4939045;29;21076;-47
2023/10/03 07:54:28;;;;;;;247.83;98.37;;;;;;;;;;4950975;28;20440;-47
2023/10/03 07:56:54;;;;;;;246.83;96.53;;;;;;;;;;4934120;29;20399;-47
2023/10/03 07:59:25;;;;;;;247.47;100.60;;;;;;;;;;4951073;28;20989;-47
2023/10/03 08:01:51;;;;;;;245.63;98.13;;;;;;;;;;4938963;28;20449;-47
2023/10/03 08:04:20;;;;;;;245.43;98.70;;;;;;;;;;4943702;28;20488;-47
2023/10/03 08:06:46;;;;;;;243.37;94.43;;;;;;;;;;4948780;28;20816;-47
2023/10/03 08:09:13;;;;;;;248.53;101.77;;;;;;;;;;4939606;29;20415;-47
2023/10/03 08:11:39;;;;;;;246.17;100.90;;;;;;;;;;4956613;28;20874;-47
2023/10/03 08:14:13;;;;;;;245.07;98.37;;;;;;;;;;4938022;28;20474;-47
2023/10/03 08:16:40;;;;;;;243.13;94.60;;;;;;;;;;4952591;28;20447;-47
2023/10/03 08:19:08;;;;;;;247.57;99.43;;;;;;;;;;4944857;28;20425;-47
2023/10/03 08:21:34;;;;;;;243.73;96.43;;;;;;;;;;4944284;29;20457;-47
2023/10/03 08:24:09;;;;;;;243.07;94.47;;;;;;;;;;4952215;28;20553;-47
2023/10/03 08:26:35;;;;;;;249.00;104.63;;;;;;;;;;4937750;29;20429;-47
2023/10/03 08:29:04;;;;;;;247.13;101.33;;;;;;;;;;4956196;28;20415;-46
2023/10/03 08:31:30;;;;;;;246.40;102.67;;;;;;;;;;4939315;28;20426;-47
2023/10/03 08:33:56;;;;;;;248.03;99.00;;;;;;;;;;4949057;28;20434;-47
2023/10/03 08:36:23;;;;;;;245.70;94.57;;;;;;;;;;4947377;28;20414;-47
2023/10/03 08:38:49;;;;;;;243.33;94.83;;;;;;;;;;4941361;29;20940;-47
2023/10/03 08:41:23;;;;;;;247.33;98.70;;;;;;;;;;4955255;28;20418;-47
2023/10/03 08:43:56;;;;;;;242.67;93.53;;;;;;;;;;4955636;28;20470;-47
2023/10/03 08:46:25;;;;;;;244.63;97.50;;;;;;;;;;4937443;28;20424;-47
2023/10/03 08:48:51;;;;;;;246.23;99.43;;;;;;;;;;4951100;28;20413;-47
2023/10/03 08:51:17;;;;;;;247.77;101.83;;;;;;;;;;4944987;28;20417;-47
2023/10/03 08:53:47;;;;;;;243.33;93.83;;;;;;;;;;4942700;28;20424;-47
2023/10/03 08:56:18;;;;;;;246.53;98.00;;;;;;;;;;4952274;28;20414;-47
2023/10/03 08:58:48;;;;;;;245.97;97.00;;;;;;;;;;4936501;28;20884;-47
2023/10/03 09:01:17;;;;;;;241.87;92.97;;;;;;;;;;4936249;29;20411;-46
2023/10/03 09:03:51;;;;;;;252.30;109.20;;;;;;;;;;4951930;28;20568;-47
2023/10/03 09:06:22;;;;;;;246.60;99.33;;;;;;;;;;4942737;28;20436;-47
2023/10/03 09:09:07;;;;;;;244.93;97.60;;;;;;;;;;4946045;29;20542;-47
2023/10/03 09:11:36;;;;;;;250.23;101.93;;;;;;;;;;4946642;28;20419;-47
2023/10/03 09:14:02;;;;;;;244.30;93.97;;;;;;;;;;4940660;28;20433;-48
2023/10/03 09:16:28;;;;;;;244.53;93.87;;;;;;;;;;4954113;28;20409;-48
2023/10/03 09:19:00;;;;;;;243.30;93.90;;;;;;;;;;4936126;29;20902;-47
2023/10/03 09:21:29;;;;;;;245.13;96.33;;;;;;;;;;4952773;29;20952;-47
2023/10/03 09:24:02;;;;;;;245.70;96.87;;;;;;;;;;4941524;28;20465;-48
2023/10/03 09:26:34;;;;;;;245.50;97.03;;;;;;;;;;4946293;28;20502;-47
2023/10/03 09:29:07;;;;;;;247.53;100.37;;;;;;;;;;4947659;28;20920;-47
2023/10/03 09:31:33;;;;;;;245.67;97.83;;;;;;;;;;4939853;29;20410;-47
2023/10/03 09:34:01;;;;;;;246.27;98.00;;;;;;;;;;4953810;28;20451;-47
2023/10/03 09:36:28;;;;;;;244.53;95.43;;;;;;;;;;4954758;28;20498;-47
2023/10/03 09:38:55;;;;;;;248.47;101.53;;;;;;;;;;4938662;28;20451;-47
2023/10/03 09:41:22;;;;;;;243.73;95.67;;;;;;;;;;4949762;29;20769;-47
2023/10/03 09:43:54;;;;;;;246.13;97.83;;;;;;;;;;4946107;28;20494;-47
2023/10/03 09:46:38;;;;;;;242.13;92.47;;;;;;;;;;4940491;29;20424;-48
2023/10/03 09:49:08;;;;;;;245.77;97.37;;;;;;;;;;4951109;28;20893;-47
2023/10/03 09:51:46;;;;;;;245.60;99.77;;;;;;;;;;4935428;29;20403;-47
2023/10/03 09:54:14;;;;;;;247.17;100.87;;;;;;;;;;4935276;29;20477;-47
2023/10/03 09:56:41;;;;;;;243.57;97.00;;;;;;;;;;4952959;28;20419;-47
2023/10/03 09:59:08;;;;;;;249.03;104.73;;;;;;;;;;4940844;28;20449;-47
2023/10/03 10:01:35;;;;;;;245.07;98.40;;;;;;;;;;4944701;28;20837;-47
2023/10/03 10:04:03;;;;;;;256.20;107.87;;;;;;;;;;4948053;28;20814;-47
2023/10/03 10:06:38;;;;;;;247.17;98.97;;;;;;;;;;4937137;29;20429;-47
2023/10/03 10:09:14;;;;;;;244.83;97.73;;;;;;;;;;4954333;28;20417;-47
2023/10/03 10:11:59;;;;;;;248.03;99.67;;;;;;;;;;4935461;29;20449;-46
2023/10/03 10:14:28;;;;;;;241.83;95.40;;;;;;;;;;4935097;29;20437;-47
2023/10/03 10:17:06;;;;;;;239.83;92.70;;;;;;;;;;4949901;29;20417;-47
2023/10/03 10:19:51;;;;;;;247.97;100.07;;;;;;;;;;4941545;28;20502;-47
2023/10/03 10:22:18;;;;;;;245.13;96.83;;;;;;;;;;4945717;29;20485;-47
2023/10/03 10:25:04;;;;;;;240.50;91.63;;;;;;;;;;4946186;28;20962;-47
2023/10/03 10:27:31;;;;;;;240.10;90.83;;;;;;;;;;4940694;29;20452;-47
2023/10/03 10:30:01;;;;;;;244.07;93.40;;;;;;;;;;4951755;28;20421;-47
2023/10/03 10:32:28;;;;;;;242.40;93.20;;;;;;;;;;4934820;29;20394;-47
2023/10/03 10:35:01;;;;;;;246.23;99.70;;;;;;;;;;4952356;28;20434;-47
2023/10/03 10:37:28;;;;;;;243.87;93.20;;;;;;;;;;4938766;28;20930;-47
2023/10/03 10:40:04;;;;;;;247.13;96.63;;;;;;;;;;4945671;29;20516;-47
2023/10/03 10:42:30;;;;;;;253.60;108.97;;;;;;;;;;4953310;28;20425;-46
2023/10/03 10:45:15;;;;;;;255.07;106.10;;;;;;;;;;4949136;28;20466;-46
2023/10/03 10:47:45;;;;;;;258.03;114.43;;;;;;;;;;4937553;29;20916;-46
2023/10/03 10:50:12;;;;;;;256.17;104.53;;;;;;;;;;4953557;28;20944;-46
2023/10/03 10:52:55;;;;;;;253.43;103.67;;;;;;;;;;4953609;28;20413;-47
2023/10/03 10:55:22;;;;;;;254.43;102.27;;;;;;;;;;4935906;28;20436;-46
2023/10/03 10:58:01;;;;;;;255.40;106.17;;;;;;;;;;4948079;29;20437;-45
2023/10/03 11:00:27;;;;;;;257.67;109.67;;;;;;;;;;4942140;28;20439;-46
2023/10/03 11:02:53;;;;;;;257.87;111.03;;;;;;;;;;4941596;29;20417;-47
2023/10/03 11:05:19;;;;;;;255.30;113.07;;;;;;;;;;4949781;28;20438;-46
2023/10/03 11:07:53;;;;;;;255.77;107.93;;;;;;;;;;4934436;29;20415;-46
2023/10/03 11:10:21;;;;;;;259.67;114.23;;;;;;;;;;4934397;29;20407;-46
2023/10/03 11:12:58;;;;;;;262.77;119.80;;;;;;;;;;4950380;28;20416;-46
2023/10/03 11:15:24;;;;;;;258.50;116.77;;;;;;;;;;4939653;28;20794;-46
2023/10/03 11:17:50;;;;;;;261.67;118.47;;;;;;;;;;4943846;29;20409;-46
2023/10/03 11:20:16;;;;;;;254.40;104.17;;;;;;;;;;4947714;28;20822;-46
2023/10/03 11:22:44;;;;;;;255.27;106.90;;;;;;;;;;4935634;29;20457;-46
2023/10/03 11:25:11;;;;;;;251.57;103.90;;;;;;;;;;4953436;28;20425;-47
2023/10/03 11:27:37;;;;;;;255.63;105.50;;;;;;;;;;4935846;28;20410;-46
2023/10/03 11:30:22;;;;;;;253.70;102.60;;;;;;;;;;4947489;28;20417;-46
2023/10/03 11:32:48;;;;;;;250.87;97.67;;;;;;;;;;4941347;28;20412;-47
2023/10/03 11:35:20;;;;;;;254.73;103.97;;;;;;;;;;4941771;29;20442;-46
2023/10/03 11:37:48;;;;;;;251.53;99.47;;;;;;;;;;4948323;28;20440;-46
2023/10/03 11:40:18;;;;;;;250.03;101.93;;;;;;;;;;4939700;29;20765;-46
2023/10/03 11:42:44;;;;;;;252.13;102.83;;;;;;;;;;4956912;28;20970;-46
2023/10/03 11:45:14;;;;;;;249.43;99.80;;;;;;;;;;4939509;28;20443;-46
2023/10/03 11:47:40;;;;;;;255.97;104.07;;;;;;;;;;4950908;28;20422;-46
2023/10/03 11:50:06;;;;;;;249.87;97.60;;;;;;;;;;4947222;28;20429;-46
2023/10/03 11:52:33;;;;;;;254.33;104.87;;;;;;;;;;4943406;29;20416;-46
2023/10/03 11:54:59;;;;;;;256.23;107.40;;;;;;;;;;4954560;28;20459;-46
2023/10/03 11:57:25;;;;;;;252.20;101.73;;;;;;;;;;4937683;29;20806;-46
2023/10/03 11:59:51;;;;;;;255.13;104.17;;;;;;;;;;4954472;28;20787;-46
2023/10/03 12:02:17;;;;;;;255.87;108.00;;;;;;;;;;4942088;28;20462;-47
2023/10/03 12:04:43;;;;;;;250.47;100.63;;;;;;;;;;4946239;29;20461;-46
2023/10/03 12:07:11;;;;;;;251.90;101.80;;;;;;;;;;4951171;28;20439;-47
2023/10/03 12:09:37;;;;;;;256.47;106.07;;;;;;;;;;4938688;29;20415;-47
2023/10/03 12:12:03;;;;;;;251.73;103.37;;;;;;;;;;4956591;28;20410;-46
2023/10/03 12:14:29;;;;;;;252.13;102.03;;;;;;;;;;4939240;28;20443;-46
2023/10/03 12:16:55;;;;;;;251.70;97.27;;;;;;;;;;4949879;29;20921;-46
2023/10/03 12:19:21;;;;;;;253.70;103.70;;;;;;;;;;4947254;28;20858;-46
2023/10/03 12:21:48;;;;;;;250.00;98.87;;;;;;;;;;4942224;29;20423;-46
2023/10/03 12:24:14;;;;;;;253.27;101.63;;;;;;;;;;4954721;28;20458;-46
2023/10/03 12:26:41;;;;;;;249.63;97.37;;;;;;;;;;4937185;29;20468;-46
2023/10/03 12:29:07;;;;;;;251.07;101.47;;;;;;;;;;4953506;29;20410;-47
2023/10/03 12:31:33;;;;;;;252.47;100.90;;;;;;;;;;4943227;28;20408;-48
2023/10/03 12:34:01;;;;;;;251.90;102.73;;;;;;;;;;4945110;28;20976;-47
2023/10/03 12:36:29;;;;;;;249.13;96.30;;;;;;;;;;4951077;28;20415;-46
2023/10/03 12:38:55;;;;;;;248.70;94.40;;;;;;;;;;4938026;29;20407;-47
2023/10/03 12:41:28;;;;;;;250.63;97.87;;;;;;;;;;4955816;28;20500;-47
2023/10/03 12:43:54;;;;;;;252.23;104.60;;;;;;;;;;4954993;28;20469;-47
2023/10/03 12:46:20;;;;;;;255.07;108.40;;;;;;;;;;4942017;28;20426;-46
2023/10/03 12:48:46;;;;;;;253.27;107.83;;;;;;;;;;4946205;29;20468;-46
2023/10/03 12:51:13;;;;;;;250.40;98.63;;;;;;;;;;4949560;28;20439;-46
2023/10/03 12:53:39;;;;;;;257.93;105.63;;;;;;;;;;4937027;28;20405;-47
2023/10/03 12:56:08;;;;;;;252.97;101.73;;;;;;;;;;4954076;28;20416;-46
2023/10/03 12:58:35;;;;;;;256.33;100.60;;;;;;;;;;4936085;28;20433;-47
2023/10/03 13:01:01;;;;;;;248.40;95.90;;;;;;;;;;4949294;29;20562;-46
2023/10/03 13:03:28;;;;;;;259.73;103.23;;;;;;;;;;4945353;28;20552;-47
2023/10/03 13:05:55;;;;;;;251.83;101.80;;;;;;;;;;4942240;29;20417;-46
2023/10/03 13:08:22;;;;;;;249.23;98.27;;;;;;;;;;4953119;28;20401;-46
2023/10/03 13:10:48;;;;;;;249.93;98.97;;;;;;;;;;4936309;29;20962;-46
2023/10/03 13:13:14;;;;;;;250.33;97.47;;;;;;;;;;4953493;29;20969;-46
2023/10/03 13:15:40;;;;;;;253.27;102.77;;;;;;;;;;4941536;28;20438;-46
2023/10/03 13:18:06;;;;;;;254.83;106.97;;;;;;;;;;4945684;29;20418;-46
2023/10/03 13:20:32;;;;;;;253.27;105.33;;;;;;;;;;4949553;28;20422;-46
2023/10/03 13:22:58;;;;;;;252.47;99.87;;;;;;;;;;4937499;29;20414;-47
2023/10/03 13:25:24;;;;;;;251.83;100.67;;;;;;;;;;4955198;28;20830;-46
2023/10/03 13:27:52;;;;;;;255.13;100.73;;;;;;;;;;4937969;28;20912;-46
2023/10/03 13:30:19;;;;;;;248.20;91.50;;;;;;;;;;4949195;28;20414;-47
2023/10/03 13:32:51;;;;;;;248.87;91.77;;;;;;;;;;4945748;28;20444;-46
2023/10/03 13:35:21;;;;;;;249.00;92.83;;;;;;;;;;4941792;29;20457;-46
2023/10/03 13:37:47;;;;;;;247.40;92.60;;;;;;;;;;4952322;28;20923;-47
2023/10/03 13:40:14;;;;;;;247.50;94.60;;;;;;;;;;4941409;29;20484;-46
2023/10/03 13:42:40;;;;;;;246.30;93.37;;;;;;;;;;4954298;28;20416;-46
2023/10/03 13:45:06;;;;;;;248.43;98.67;;;;;;;;;;4940011;28;20479;-47
2023/10/03 13:47:32;;;;;;;248.87;96.77;;;;;;;;;;4945958;28;20463;-47
2023/10/03 13:49:59;;;;;;;274.37;114.37;;;;;;;;;;4948879;28;20450;-46
2023/10/03 13:52:25;;;;;;;250.13;100.27;;;;;;;;;;4951980;28;20409;-46
2023/10/03 13:54:51;;;;;;;252.77;99.57;;;;;;;;;;4935074;29;20434;-46
2023/10/03 13:57:17;;;;;;;248.13;96.77;;;;;;;;;;4953225;29;20902;-46
2023/10/03 13:59:47;;;;;;;247.33;96.53;;;;;;;;;;4940379;28;20425;-46
2023/10/03 14:02:13;;;;;;;248.37;93.60;;;;;;;;;;4945624;29;20429;-47
2023/10/03 14:04:39;;;;;;;249.23;96.10;;;;;;;;;;4946818;28;20466;-47
2023/10/03 14:07:05;;;;;;;250.83;98.53;;;;;;;;;;4937660;28;20418;-46
2023/10/03 14:09:32;;;;;;;250.30;95.07;;;;;;;;;;4954268;28;20403;-47